sensor_id;sensor_type;location;lat;lon;timestamp;temperature;humidity
75442;DHT22;64019;48.312;14.226;2023-04-03T00:00:13;5.70;99.90
75442;DHT22;64019;48.312;14.226;2023-04-03T00:02:39;5.70;99.90
75442;DHT22;64019;48.312;14.226;2023-04-03T00:05:06;5.70;99.90
75442;DHT22;64019;48.312;14.226;2023-04-03T00:07:32;5.70;99.90
75442;DHT22;64019;48.312;14.226;2023-04-03T00:09:57;5.70;99.90
75442;DHT22;64019;48.312;14.226;2023-04-03T00:12:23;5.60;99.90
75442;DHT22;64019;48.312;14.226;2023-04-03T00:14:49;5.60;99.90
75442;DHT22;64019;48.312;14.226;2023-04-03T00:17:14;5.70;99.90
75442;DHT22;64019;48.312;14.226;2023-04-03T00:19:40;5.60;99.90
75442;DHT22;64019;48.312;14.226;2023-04-03T00:22:06;5.60;99.90
75442;DHT22;64019;48.312;14.226;2023-04-03T00:24:31;5.60;99.90
75442;DHT22;64019;48.312;14.226;2023-04-03T00:26:57;5.60;99.90
75442;DHT22;64019;48.312;14.226;2023-04-03T00:29:22;5.60;99.90
75442;DHT22;64019;48.312;14.226;2023-04-03T00:31:48;5.60;99.90
75442;DHT22;64019;48.312;14.226;2023-04-03T00:34:14;5.60;99.90
75442;DHT22;64019;48.312;14.226;2023-04-03T00:36:39;5.60;99.90
75442;DHT22;64019;48.312;14.226;2023-04-03T00:39:05;5.50;99.90
75442;DHT22;64019;48.312;14.226;2023-04-03T00:41:31;5.50;99.90
75442;DHT22;64019;48.312;14.226;2023-04-03T00:43:57;5.60;99.90
75442;DHT22;64019;48.312;14.226;2023-04-03T00:46:23;5.60;99.90
75442;DHT22;64019;48.312;14.226;2023-04-03T00:48:49;5.60;99.90
75442;DHT22;64019;48.312;14.226;2023-04-03T00:51:23;5.70;99.90
75442;DHT22;64019;48.312;14.226;2023-04-03T00:53:51;5.50;99.90
75442;DHT22;64019;48.312;14.226;2023-04-03T00:56:21;5.30;99.90
75442;DHT22;64019;48.312;14.226;2023-04-03T00:58:59;5.40;99.90
75442;DHT22;64019;48.312;14.226;2023-04-03T01:01:27;5.30;99.90
75442;DHT22;64019;48.312;14.226;2023-04-03T01:03:53;5.40;99.90
75442;DHT22;64019;48.312;14.226;2023-04-03T01:06:23;5.40;99.90
75442;DHT22;64019;48.312;14.226;2023-04-03T01:08:50;5.30;99.90
75442;DHT22;64019;48.312;14.226;2023-04-03T01:11:16;5.20;99.90
75442;DHT22;64019;48.312;14.226;2023-04-03T01:13:42;5.20;99.90
75442;DHT22;64019;48.312;14.226;2023-04-03T01:16:08;5.30;99.90
75442;DHT22;64019;48.312;14.226;2023-04-03T01:18:36;5.30;99.90
75442;DHT22;64019;48.312;14.226;2023-04-03T01:24:33;5.40;99.90
75442;DHT22;64019;48.312;14.226;2023-04-03T01:26:58;5.30;99.90
75442;DHT22;64019;48.312;14.226;2023-04-03T01:29:23;5.30;99.90
75442;DHT22;64019;48.312;14.226;2023-04-03T01:31:57;5.20;99.90
75442;DHT22;64019;48.312;14.226;2023-04-03T01:34:24;5.20;99.90
75442;DHT22;64019;48.312;14.226;2023-04-03T01:36:50;5.20;99.90
75442;DHT22;64019;48.312;14.226;2023-04-03T01:39:16;5.30;99.90
75442;DHT22;64019;48.312;14.226;2023-04-03T01:41:42;5.30;99.90
75442;DHT22;64019;48.312;14.226;2023-04-03T01:44:08;5.30;99.90
75442;DHT22;64019;48.312;14.226;2023-04-03T01:46:34;5.40;99.90
75442;DHT22;64019;48.312;14.226;2023-04-03T01:49:00;5.50;99.90
75442;DHT22;64019;48.312;14.226;2023-04-03T01:51:25;5.50;99.90
75442;DHT22;64019;48.312;14.226;2023-04-03T01:53:51;5.50;99.90
75442;DHT22;64019;48.312;14.226;2023-04-03T01:56:17;5.50;99.90
75442;DHT22;64019;48.312;14.226;2023-04-03T01:58:42;5.50;99.90
75442;DHT22;64019;48.312;14.226;2023-04-03T02:01:08;5.50;99.90
75442;DHT22;64019;48.312;14.226;2023-04-03T02:03:34;5.40;99.90
75442;DHT22;64019;48.312;14.226;2023-04-03T02:05:59;5.30;99.90
75442;DHT22;64019;48.312;14.226;2023-04-03T02:08:25;5.30;99.90
75442;DHT22;64019;48.312;14.226;2023-04-03T02:10:51;5.20;99.90
75442;DHT22;64019;48.312;14.226;2023-04-03T02:13:17;5.20;99.90
75442;DHT22;64019;48.312;14.226;2023-04-03T02:15:43;5.20;99.90
75442;DHT22;64019;48.312;14.226;2023-04-03T02:18:09;5.20;99.90
75442;DHT22;64019;48.312;14.226;2023-04-03T02:20:35;5.30;99.90
75442;DHT22;64019;48.312;14.226;2023-04-03T02:23:01;5.30;99.90
75442;DHT22;64019;48.312;14.226;2023-04-03T02:25:27;5.20;99.90
75442;DHT22;64019;48.312;14.226;2023-04-03T02:27:52;5.20;99.90
75442;DHT22;64019;48.312;14.226;2023-04-03T02:30:18;5.20;99.90
75442;DHT22;64019;48.312;14.226;2023-04-03T02:32:44;5.30;99.90
75442;DHT22;64019;48.312;14.226;2023-04-03T02:35:11;5.20;99.90
75442;DHT22;64019;48.312;14.226;2023-04-03T02:37:37;5.20;99.90
75442;DHT22;64019;48.312;14.226;2023-04-03T02:40:03;5.30;99.90
75442;DHT22;64019;48.312;14.226;2023-04-03T02:42:29;5.30;99.90
75442;DHT22;64019;48.312;14.226;2023-04-03T02:44:55;5.30;99.90
75442;DHT22;64019;48.312;14.226;2023-04-03T02:47:21;5.30;99.90
75442;DHT22;64019;48.312;14.226;2023-04-03T02:49:47;5.20;99.90
75442;DHT22;64019;48.312;14.226;2023-04-03T02:52:13;5.10;99.90
75442;DHT22;64019;48.312;14.226;2023-04-03T02:54:39;5.20;99.90
75442;DHT22;64019;48.312;14.226;2023-04-03T02:57:05;5.10;99.90
75442;DHT22;64019;48.312;14.226;2023-04-03T02:59:30;5.10;99.90
75442;DHT22;64019;48.312;14.226;2023-04-03T03:01:56;5.10;99.90
75442;DHT22;64019;48.312;14.226;2023-04-03T03:04:22;5.00;99.90
75442;DHT22;64019;48.312;14.226;2023-04-03T03:06:48;5.10;99.90
75442;DHT22;64019;48.312;14.226;2023-04-03T03:09:14;5.00;99.90
75442;DHT22;64019;48.312;14.226;2023-04-03T03:11:40;5.10;99.90
75442;DHT22;64019;48.312;14.226;2023-04-03T03:14:05;5.10;99.90
75442;DHT22;64019;48.312;14.226;2023-04-03T03:16:31;5.10;99.90
75442;DHT22;64019;48.312;14.226;2023-04-03T03:18:57;5.20;99.90
75442;DHT22;64019;48.312;14.226;2023-04-03T03:21:22;5.20;99.90
75442;DHT22;64019;48.312;14.226;2023-04-03T03:23:48;5.20;99.90
75442;DHT22;64019;48.312;14.226;2023-04-03T03:26:14;5.20;99.90
75442;DHT22;64019;48.312;14.226;2023-04-03T03:28:40;5.20;99.90
75442;DHT22;64019;48.312;14.226;2023-04-03T03:31:07;5.20;99.90
75442;DHT22;64019;48.312;14.226;2023-04-03T03:33:33;5.20;99.90
75442;DHT22;64019;48.312;14.226;2023-04-03T03:35:59;5.30;99.90
75442;DHT22;64019;48.312;14.226;2023-04-03T03:38:25;5.10;99.90
75442;DHT22;64019;48.312;14.226;2023-04-03T03:40:51;5.00;99.90
75442;DHT22;64019;48.312;14.226;2023-04-03T03:43:17;5.10;99.90
75442;DHT22;64019;48.312;14.226;2023-04-03T03:45:43;5.10;99.90
75442;DHT22;64019;48.312;14.226;2023-04-03T03:48:09;5.00;99.90
75442;DHT22;64019;48.312;14.226;2023-04-03T03:50:35;5.00;99.90
75442;DHT22;64019;48.312;14.226;2023-04-03T03:53:00;5.00;99.90
75442;DHT22;64019;48.312;14.226;2023-04-03T03:55:26;4.90;99.90
75442;DHT22;64019;48.312;14.226;2023-04-03T03:57:52;4.90;99.90
75442;DHT22;64019;48.312;14.226;2023-04-03T04:00:18;4.90;99.90
75442;DHT22;64019;48.312;14.226;2023-04-03T04:02:44;4.90;99.90
75442;DHT22;64019;48.312;14.226;2023-04-03T04:05:09;4.90;99.90
75442;DHT22;64019;48.312;14.226;2023-04-03T04:07:35;4.90;99.90
75442;DHT22;64019;48.312;14.226;2023-04-03T04:10:01;4.90;99.90
75442;DHT22;64019;48.312;14.226;2023-04-03T04:12:27;4.80;99.90
75442;DHT22;64019;48.312;14.226;2023-04-03T04:14:52;4.80;99.90
75442;DHT22;64019;48.312;14.226;2023-04-03T04:17:18;4.80;99.90
75442;DHT22;64019;48.312;14.226;2023-04-03T04:19:44;4.90;99.90
75442;DHT22;64019;48.312;14.226;2023-04-03T04:22:10;4.90;99.90
75442;DHT22;64019;48.312;14.226;2023-04-03T04:24:35;4.80;99.90
75442;DHT22;64019;48.312;14.226;2023-04-03T04:27:01;4.90;99.90
75442;DHT22;64019;48.312;14.226;2023-04-03T04:29:26;4.90;99.90
75442;DHT22;64019;48.312;14.226;2023-04-03T04:31:52;5.00;99.90
75442;DHT22;64019;48.312;14.226;2023-04-03T04:34:18;5.00;99.90
75442;DHT22;64019;48.312;14.226;2023-04-03T04:36:43;4.90;99.90
75442;DHT22;64019;48.312;14.226;2023-04-03T04:39:09;4.90;99.90
75442;DHT22;64019;48.312;14.226;2023-04-03T04:41:35;4.80;99.90
75442;DHT22;64019;48.312;14.226;2023-04-03T04:44:00;4.80;99.90
75442;DHT22;64019;48.312;14.226;2023-04-03T04:46:26;4.80;99.90
75442;DHT22;64019;48.312;14.226;2023-04-03T04:48:52;4.80;99.90
75442;DHT22;64019;48.312;14.226;2023-04-03T04:51:18;4.80;99.90
75442;DHT22;64019;48.312;14.226;2023-04-03T04:53:43;4.80;99.90
75442;DHT22;64019;48.312;14.226;2023-04-03T04:56:09;4.90;99.90
75442;DHT22;64019;48.312;14.226;2023-04-03T04:58:35;4.80;99.90
75442;DHT22;64019;48.312;14.226;2023-04-03T05:01:06;4.80;99.90
75442;DHT22;64019;48.312;14.226;2023-04-03T05:03:32;4.80;99.90
75442;DHT22;64019;48.312;14.226;2023-04-03T05:05:58;4.80;99.90
75442;DHT22;64019;48.312;14.226;2023-04-03T05:08:24;4.80;99.90
75442;DHT22;64019;48.312;14.226;2023-04-03T05:10:50;4.80;99.90
75442;DHT22;64019;48.312;14.226;2023-04-03T05:13:15;4.70;99.90
75442;DHT22;64019;48.312;14.226;2023-04-03T05:15:41;4.70;99.90
75442;DHT22;64019;48.312;14.226;2023-04-03T05:18:07;4.70;99.90
75442;DHT22;64019;48.312;14.226;2023-04-03T05:20:33;4.70;99.90
75442;DHT22;64019;48.312;14.226;2023-04-03T05:22:59;4.70;99.90
75442;DHT22;64019;48.312;14.226;2023-04-03T05:25:24;4.80;99.90
75442;DHT22;64019;48.312;14.226;2023-04-03T05:27:50;4.70;99.90
75442;DHT22;64019;48.312;14.226;2023-04-03T05:30:16;4.70;99.90
75442;DHT22;64019;48.312;14.226;2023-04-03T05:32:42;4.80;99.90
75442;DHT22;64019;48.312;14.226;2023-04-03T05:35:09;4.90;99.90
75442;DHT22;64019;48.312;14.226;2023-04-03T05:37:35;4.90;99.90
75442;DHT22;64019;48.312;14.226;2023-04-03T05:40:01;4.90;99.90
75442;DHT22;64019;48.312;14.226;2023-04-03T05:42:27;5.00;99.90
75442;DHT22;64019;48.312;14.226;2023-04-03T05:44:53;5.10;99.90
75442;DHT22;64019;48.312;14.226;2023-04-03T05:47:19;5.10;99.90
75442;DHT22;64019;48.312;14.226;2023-04-03T05:49:44;5.10;99.90
75442;DHT22;64019;48.312;14.226;2023-04-03T05:52:40;5.10;99.90
75442;DHT22;64019;48.312;14.226;2023-04-03T05:55:07;5.00;99.90
75442;DHT22;64019;48.312;14.226;2023-04-03T05:57:33;4.90;99.90
75442;DHT22;64019;48.312;14.226;2023-04-03T05:59:58;4.80;99.90
75442;DHT22;64019;48.312;14.226;2023-04-03T06:02:24;4.80;99.90
75442;DHT22;64019;48.312;14.226;2023-04-03T06:04:51;4.80;99.90
75442;DHT22;64019;48.312;14.226;2023-04-03T06:07:22;4.80;99.90
75442;DHT22;64019;48.312;14.226;2023-04-03T06:09:49;4.90;99.90
75442;DHT22;64019;48.312;14.226;2023-04-03T06:12:15;4.90;99.90
75442;DHT22;64019;48.312;14.226;2023-04-03T06:14:41;4.90;99.90
75442;DHT22;64019;48.312;14.226;2023-04-03T06:17:07;4.90;99.90
75442;DHT22;64019;48.312;14.226;2023-04-03T06:19:34;4.80;99.90
75442;DHT22;64019;48.312;14.226;2023-04-03T06:22:00;4.80;99.90
75442;DHT22;64019;48.312;14.226;2023-04-03T06:24:26;4.80;99.90
75442;DHT22;64019;48.312;14.226;2023-04-03T06:26:53;4.70;99.90
75442;DHT22;64019;48.312;14.226;2023-04-03T06:29:21;4.70;99.90
75442;DHT22;64019;48.312;14.226;2023-04-03T06:31:48;4.70;99.90
75442;DHT22;64019;48.312;14.226;2023-04-03T06:34:13;4.80;99.90
75442;DHT22;64019;48.312;14.226;2023-04-03T06:36:39;4.80;99.90
75442;DHT22;64019;48.312;14.226;2023-04-03T06:39:06;4.70;99.90
75442;DHT22;64019;48.312;14.226;2023-04-03T06:41:32;4.70;99.90
75442;DHT22;64019;48.312;14.226;2023-04-03T06:43:58;4.80;99.90
75442;DHT22;64019;48.312;14.226;2023-04-03T06:46:25;4.90;99.90
75442;DHT22;64019;48.312;14.226;2023-04-03T06:48:52;5.00;99.90
75442;DHT22;64019;48.312;14.226;2023-04-03T06:53:46;5.30;99.90
75442;DHT22;64019;48.312;14.226;2023-04-03T06:56:12;5.40;99.90
75442;DHT22;64019;48.312;14.226;2023-04-03T06:58:38;5.50;99.90
75442;DHT22;64019;48.312;14.226;2023-04-03T07:01:04;5.60;99.90
75442;DHT22;64019;48.312;14.226;2023-04-03T07:03:29;5.70;99.90
75442;DHT22;64019;48.312;14.226;2023-04-03T07:05:55;5.50;99.90
75442;DHT22;64019;48.312;14.226;2023-04-03T07:08:21;5.50;99.90
75442;DHT22;64019;48.312;14.226;2023-04-03T07:10:48;5.60;99.90
75442;DHT22;64019;48.312;14.226;2023-04-03T07:13:15;5.50;99.90
75442;DHT22;64019;48.312;14.226;2023-04-03T07:15:41;5.50;99.90
75442;DHT22;64019;48.312;14.226;2023-04-03T07:18:06;5.40;99.90
75442;DHT22;64019;48.312;14.226;2023-04-03T07:20:32;5.30;99.90
75442;DHT22;64019;48.312;14.226;2023-04-03T07:22:58;5.10;99.90
75442;DHT22;64019;48.312;14.226;2023-04-03T07:25:23;5.10;99.90
75442;DHT22;64019;48.312;14.226;2023-04-03T07:27:49;5.20;99.90
75442;DHT22;64019;48.312;14.226;2023-04-03T07:30:15;5.20;99.90
75442;DHT22;64019;48.312;14.226;2023-04-03T07:32:41;5.10;99.90
75442;DHT22;64019;48.312;14.226;2023-04-03T07:35:07;4.80;99.90
75442;DHT22;64019;48.312;14.226;2023-04-03T07:37:32;4.80;99.90
75442;DHT22;64019;48.312;14.226;2023-04-03T07:39:58;4.70;99.90
75442;DHT22;64019;48.312;14.226;2023-04-03T07:42:25;4.70;99.90
75442;DHT22;64019;48.312;14.226;2023-04-03T07:44:53;4.70;99.90
75442;DHT22;64019;48.312;14.226;2023-04-03T07:47:19;4.70;99.90
75442;DHT22;64019;48.312;14.226;2023-04-03T07:49:46;4.80;99.90
75442;DHT22;64019;48.312;14.226;2023-04-03T07:52:12;4.90;99.90
75442;DHT22;64019;48.312;14.226;2023-04-03T07:54:40;4.90;99.90
75442;DHT22;64019;48.312;14.226;2023-04-03T07:57:06;5.00;99.90
75442;DHT22;64019;48.312;14.226;2023-04-03T07:59:32;5.00;99.90
75442;DHT22;64019;48.312;14.226;2023-04-03T08:01:58;5.10;99.90
75442;DHT22;64019;48.312;14.226;2023-04-03T08:04:23;5.20;99.90
75442;DHT22;64019;48.312;14.226;2023-04-03T08:06:50;5.30;99.90
75442;DHT22;64019;48.312;14.226;2023-04-03T08:09:16;5.40;99.90
75442;DHT22;64019;48.312;14.226;2023-04-03T08:11:42;5.50;99.90
75442;DHT22;64019;48.312;14.226;2023-04-03T08:14:08;5.60;99.90
75442;DHT22;64019;48.312;14.226;2023-04-03T08:16:36;5.70;99.90
75442;DHT22;64019;48.312;14.226;2023-04-03T08:19:01;5.80;99.90
75442;DHT22;64019;48.312;14.226;2023-04-03T08:21:27;5.90;99.90
75442;DHT22;64019;48.312;14.226;2023-04-03T08:23:53;5.90;99.90
75442;DHT22;64019;48.312;14.226;2023-04-03T08:26:20;5.90;99.90
75442;DHT22;64019;48.312;14.226;2023-04-03T08:28:47;6.00;99.90
75442;DHT22;64019;48.312;14.226;2023-04-03T08:31:16;5.90;99.90
75442;DHT22;64019;48.312;14.226;2023-04-03T08:33:44;5.80;99.90
75442;DHT22;64019;48.312;14.226;2023-04-03T08:36:36;5.80;99.90
75442;DHT22;64019;48.312;14.226;2023-04-03T08:39:02;5.80;99.90
75442;DHT22;64019;48.312;14.226;2023-04-03T08:41:36;5.80;99.90
75442;DHT22;64019;48.312;14.226;2023-04-03T08:44:33;5.60;99.90
75442;DHT22;64019;48.312;14.226;2023-04-03T08:49:50;5.60;99.90
75442;DHT22;64019;48.312;14.226;2023-04-03T08:55:22;5.70;99.90
75442;DHT22;64019;48.312;14.226;2023-04-03T08:57:52;6.00;99.90
75442;DHT22;64019;48.312;14.226;2023-04-03T09:00:24;6.00;99.90
75442;DHT22;64019;48.312;14.226;2023-04-03T09:02:53;6.00;99.90
75442;DHT22;64019;48.312;14.226;2023-04-03T09:05:29;6.20;99.90
75442;DHT22;64019;48.312;14.226;2023-04-03T09:08:04;6.00;99.90
75442;DHT22;64019;48.312;14.226;2023-04-03T09:10:34;6.10;99.90
75442;DHT22;64019;48.312;14.226;2023-04-03T09:13:26;6.20;99.90
75442;DHT22;64019;48.312;14.226;2023-04-03T09:15:54;6.30;99.90
75442;DHT22;64019;48.312;14.226;2023-04-03T09:18:26;6.40;99.90
75442;DHT22;64019;48.312;14.226;2023-04-03T09:21:26;6.50;99.90
75442;DHT22;64019;48.312;14.226;2023-04-03T09:23:58;6.50;99.90
75442;DHT22;64019;48.312;14.226;2023-04-03T09:26:25;6.30;99.90
75442;DHT22;64019;48.312;14.226;2023-04-03T09:28:58;6.50;99.90
75442;DHT22;64019;48.312;14.226;2023-04-03T09:31:27;6.60;99.90
75442;DHT22;64019;48.312;14.226;2023-04-03T09:33:57;6.70;99.90
75442;DHT22;64019;48.312;14.226;2023-04-03T09:36:52;6.70;99.90
75442;DHT22;64019;48.312;14.226;2023-04-03T09:39:26;6.80;99.90
75442;DHT22;64019;48.312;14.226;2023-04-03T09:44:36;6.90;99.90
75442;DHT22;64019;48.312;14.226;2023-04-03T09:47:19;7.20;99.90
75442;DHT22;64019;48.312;14.226;2023-04-03T09:49:45;7.20;99.90
75442;DHT22;64019;48.312;14.226;2023-04-03T09:52:24;7.40;99.90
75442;DHT22;64019;48.312;14.226;2023-04-03T09:54:50;7.60;99.90
75442;DHT22;64019;48.312;14.226;2023-04-03T09:57:15;7.60;99.90
75442;DHT22;64019;48.312;14.226;2023-04-03T09:59:58;7.70;99.90
75442;DHT22;64019;48.312;14.226;2023-04-03T10:02:39;7.90;99.90
75442;DHT22;64019;48.312;14.226;2023-04-03T10:05:30;8.00;99.90
75442;DHT22;64019;48.312;14.226;2023-04-03T10:08:10;7.90;99.90
75442;DHT22;64019;48.312;14.226;2023-04-03T10:10:36;7.80;99.90
75442;DHT22;64019;48.312;14.226;2023-04-03T10:13:12;8.00;99.90
75442;DHT22;64019;48.312;14.226;2023-04-03T10:16:12;8.00;99.90
75442;DHT22;64019;48.312;14.226;2023-04-03T10:18:46;7.90;99.90
75442;DHT22;64019;48.312;14.226;2023-04-03T10:23:50;7.40;99.90
75442;DHT22;64019;48.312;14.226;2023-04-03T10:26:39;7.10;99.90
75442;DHT22;64019;48.312;14.226;2023-04-03T10:40:50;7.40;99.90
75442;DHT22;64019;48.312;14.226;2023-04-03T10:43:41;7.50;99.90
75442;DHT22;64019;48.312;14.226;2023-04-03T10:54:16;6.70;99.90
75442;DHT22;64019;48.312;14.226;2023-04-03T10:56:47;6.60;99.90
75442;DHT22;64019;48.312;14.226;2023-04-03T10:59:30;6.70;99.90
75442;DHT22;64019;48.312;14.226;2023-04-03T11:02:01;6.80;99.90
75442;DHT22;64019;48.312;14.226;2023-04-03T11:04:34;6.80;99.90
75442;DHT22;64019;48.312;14.226;2023-04-03T11:07:12;6.90;99.90
75442;DHT22;64019;48.312;14.226;2023-04-03T11:09:42;6.90;99.90
75442;DHT22;64019;48.312;14.226;2023-04-03T11:12:30;6.90;99.90
75442;DHT22;64019;48.312;14.226;2023-04-03T11:15:01;6.80;99.90
75442;DHT22;64019;48.312;14.226;2023-04-03T11:17:33;6.80;99.90
75442;DHT22;64019;48.312;14.226;2023-04-03T11:22:34;6.70;99.90
75442;DHT22;64019;48.312;14.226;2023-04-03T11:27:56;6.90;99.90
75442;DHT22;64019;48.312;14.226;2023-04-03T11:35:58;6.40;99.90
75442;DHT22;64019;48.312;14.226;2023-04-03T11:38:33;6.50;99.90
75442;DHT22;64019;48.312;14.226;2023-04-03T11:41:06;6.30;99.90
75442;DHT22;64019;48.312;14.226;2023-04-03T11:43:33;6.30;99.90
75442;DHT22;64019;48.312;14.226;2023-04-03T11:46:05;6.20;99.90
75442;DHT22;64019;48.312;14.226;2023-04-03T11:53:41;6.30;99.90
75442;DHT22;64019;48.312;14.226;2023-04-03T12:01:48;6.00;99.90
75442;DHT22;64019;48.312;14.226;2023-04-03T12:04:16;6.00;99.90
75442;DHT22;64019;48.312;14.226;2023-04-03T12:12:30;6.60;99.90
75442;DHT22;64019;48.312;14.226;2023-04-03T12:15:56;6.70;99.90
75442;DHT22;64019;48.312;14.226;2023-04-03T12:17:57;6.70;99.90
75442;DHT22;64019;48.312;14.226;2023-04-03T12:23:29;7.00;99.90
75442;DHT22;64019;48.312;14.226;2023-04-03T12:26:19;7.00;99.90
75442;DHT22;64019;48.312;14.226;2023-04-03T12:28:48;7.10;99.90
75442;DHT22;64019;48.312;14.226;2023-04-03T12:31:16;7.20;99.90
75442;DHT22;64019;48.312;14.226;2023-04-03T12:34:11;7.10;99.90
75442;DHT22;64019;48.312;14.226;2023-04-03T12:37:01;7.10;99.90
75442;DHT22;64019;48.312;14.226;2023-04-03T12:39:46;7.00;99.90
75442;DHT22;64019;48.312;14.226;2023-04-03T12:45:17;6.70;99.90
75442;DHT22;64019;48.312;14.226;2023-04-03T12:47:45;6.60;99.90
75442;DHT22;64019;48.312;14.226;2023-04-03T12:50:28;6.50;99.90
75442;DHT22;64019;48.312;14.226;2023-04-03T12:53:19;6.50;99.90
75442;DHT22;64019;48.312;14.226;2023-04-03T12:55:53;6.50;99.90
75442;DHT22;64019;48.312;14.226;2023-04-03T12:58:22;6.70;99.90
75442;DHT22;64019;48.312;14.226;2023-04-03T13:01:01;6.60;99.90
75442;DHT22;64019;48.312;14.226;2023-04-03T13:03:27;6.80;99.90
75442;DHT22;64019;48.312;14.226;2023-04-03T13:06:00;6.60;99.90
75442;DHT22;64019;48.312;14.226;2023-04-03T13:08:26;6.60;99.90
75442;DHT22;64019;48.312;14.226;2023-04-03T13:11:10;6.60;99.90
75442;DHT22;64019;48.312;14.226;2023-04-03T13:13:37;6.40;99.90
75442;DHT22;64019;48.312;14.226;2023-04-03T13:16:11;6.40;99.90
75442;DHT22;64019;48.312;14.226;2023-04-03T13:18:37;6.40;99.90
75442;DHT22;64019;48.312;14.226;2023-04-03T13:23:40;6.30;99.90
75442;DHT22;64019;48.312;14.226;2023-04-03T13:26:08;6.40;99.90
75442;DHT22;64019;48.312;14.226;2023-04-03T13:28:35;6.70;99.90
75442;DHT22;64019;48.312;14.226;2023-04-03T13:33:43;6.90;99.90
75442;DHT22;64019;48.312;14.226;2023-04-03T13:36:24;7.00;99.90
75442;DHT22;64019;48.312;14.226;2023-04-03T13:39:17;7.10;99.90
75442;DHT22;64019;48.312;14.226;2023-04-03T13:41:51;7.40;99.90
75442;DHT22;64019;48.312;14.226;2023-04-03T13:46:57;7.60;99.90
75442;DHT22;64019;48.312;14.226;2023-04-03T13:51:52;7.20;99.90
75442;DHT22;64019;48.312;14.226;2023-04-03T13:54:24;7.10;99.90
75442;DHT22;64019;48.312;14.226;2023-04-03T13:56:55;6.70;99.90
75442;DHT22;64019;48.312;14.226;2023-04-03T13:59:32;6.50;99.90
75442;DHT22;64019;48.312;14.226;2023-04-03T14:04:48;6.20;99.90
75442;DHT22;64019;48.312;14.226;2023-04-03T14:07:16;6.30;99.90
75442;DHT22;64019;48.312;14.226;2023-04-03T14:09:42;6.50;99.90
75442;DHT22;64019;48.312;14.226;2023-04-03T14:12:15;6.50;99.90
75442;DHT22;64019;48.312;14.226;2023-04-03T14:14:42;6.60;99.90
75442;DHT22;64019;48.312;14.226;2023-04-03T14:17:18;6.70;99.90
75442;DHT22;64019;48.312;14.226;2023-04-03T14:19:45;6.50;99.90
75442;DHT22;64019;48.312;14.226;2023-04-03T14:22:22;6.40;99.90
75442;DHT22;64019;48.312;14.226;2023-04-03T14:24:50;6.30;99.90
75442;DHT22;64019;48.312;14.226;2023-04-03T14:27:24;6.30;99.90
75442;DHT22;64019;48.312;14.226;2023-04-03T14:29:52;6.30;99.90
75442;DHT22;64019;48.312;14.226;2023-04-03T14:32:20;6.10;99.90
75442;DHT22;64019;48.312;14.226;2023-04-03T14:34:47;6.10;99.90
75442;DHT22;64019;48.312;14.226;2023-04-03T14:37:17;6.00;99.90
75442;DHT22;64019;48.312;14.226;2023-04-03T14:39:43;6.00;99.90
75442;DHT22;64019;48.312;14.226;2023-04-03T14:42:24;5.80;99.90
75442;DHT22;64019;48.312;14.226;2023-04-03T14:44:50;5.90;99.90
75442;DHT22;64019;48.312;14.226;2023-04-03T14:47:21;5.70;99.90
75442;DHT22;64019;48.312;14.226;2023-04-03T14:49:47;5.70;99.90
75442;DHT22;64019;48.312;14.226;2023-04-03T14:52:33;5.60;99.90
75442;DHT22;64019;48.312;14.226;2023-04-03T14:54:59;5.70;99.90
75442;DHT22;64019;48.312;14.226;2023-04-03T14:57:27;5.60;99.90
75442;DHT22;64019;48.312;14.226;2023-04-03T14:59:53;5.60;99.90
75442;DHT22;64019;48.312;14.226;2023-04-03T15:02:29;5.70;99.90
75442;DHT22;64019;48.312;14.226;2023-04-03T15:04:55;5.70;99.90
75442;DHT22;64019;48.312;14.226;2023-04-03T15:07:22;5.80;99.90
75442;DHT22;64019;48.312;14.226;2023-04-03T15:09:49;5.80;99.90
75442;DHT22;64019;48.312;14.226;2023-04-03T15:12:15;5.70;99.90
75442;DHT22;64019;48.312;14.226;2023-04-03T15:14:41;5.60;99.90
75442;DHT22;64019;48.312;14.226;2023-04-03T15:17:14;5.60;99.90
75442;DHT22;64019;48.312;14.226;2023-04-03T15:19:40;5.60;99.90
75442;DHT22;64019;48.312;14.226;2023-04-03T15:22:06;5.50;99.90
75442;DHT22;64019;48.312;14.226;2023-04-03T15:24:32;5.60;99.90
75442;DHT22;64019;48.312;14.226;2023-04-03T15:26:58;5.60;99.90
75442;DHT22;64019;48.312;14.226;2023-04-03T15:29:25;5.60;99.90
75442;DHT22;64019;48.312;14.226;2023-04-03T15:31:50;5.60;99.90
75442;DHT22;64019;48.312;14.226;2023-04-03T15:34:18;5.80;99.90
75442;DHT22;64019;48.312;14.226;2023-04-03T15:36:44;5.80;99.90
75442;DHT22;64019;48.312;14.226;2023-04-03T15:39:10;5.70;99.90
75442;DHT22;64019;48.312;14.226;2023-04-03T15:41:35;5.50;99.90
75442;DHT22;64019;48.312;14.226;2023-04-03T15:44:01;5.50;99.90
75442;DHT22;64019;48.312;14.226;2023-04-03T15:46:26;5.60;99.90
75442;DHT22;64019;48.312;14.226;2023-04-03T15:48:52;5.70;99.90
75442;DHT22;64019;48.312;14.226;2023-04-03T15:51:18;5.70;99.90
75442;DHT22;64019;48.312;14.226;2023-04-03T15:53:43;5.60;99.90
75442;DHT22;64019;48.312;14.226;2023-04-03T15:56:09;5.50;99.90
75442;DHT22;64019;48.312;14.226;2023-04-03T15:58:37;5.50;99.90
75442;DHT22;64019;48.312;14.226;2023-04-03T16:01:02;5.40;99.90
75442;DHT22;64019;48.312;14.226;2023-04-03T16:03:28;5.00;99.90
75442;DHT22;64019;48.312;14.226;2023-04-03T16:05:55;4.90;99.90
75442;DHT22;64019;48.312;14.226;2023-04-03T16:08:21;4.70;99.90
75442;DHT22;64019;48.312;14.226;2023-04-03T16:10:46;4.60;99.90
75442;DHT22;64019;48.312;14.226;2023-04-03T16:13:13;4.60;99.90
75442;DHT22;64019;48.312;14.226;2023-04-03T16:15:39;4.60;99.90
75442;DHT22;64019;48.312;14.226;2023-04-03T16:18:05;4.60;99.90
75442;DHT22;64019;48.312;14.226;2023-04-03T16:20:31;4.70;99.90
75442;DHT22;64019;48.312;14.226;2023-04-03T16:22:58;4.70;99.90
75442;DHT22;64019;48.312;14.226;2023-04-03T16:25:25;4.90;99.90
75442;DHT22;64019;48.312;14.226;2023-04-03T16:27:51;4.90;99.90
75442;DHT22;64019;48.312;14.226;2023-04-03T16:30:17;5.00;99.90
75442;DHT22;64019;48.312;14.226;2023-04-03T16:32:43;4.90;99.90
75442;DHT22;64019;48.312;14.226;2023-04-03T16:35:09;4.90;99.90
75442;DHT22;64019;48.312;14.226;2023-04-03T16:37:37;4.80;99.90
75442;DHT22;64019;48.312;14.226;2023-04-03T16:40:03;4.70;99.90
75442;DHT22;64019;48.312;14.226;2023-04-03T16:42:30;4.70;99.90
75442;DHT22;64019;48.312;14.226;2023-04-03T16:44:56;4.70;99.90
75442;DHT22;64019;48.312;14.226;2023-04-03T16:47:21;4.80;99.90
75442;DHT22;64019;48.312;14.226;2023-04-03T16:49:47;4.90;99.90
75442;DHT22;64019;48.312;14.226;2023-04-03T16:52:13;4.90;99.90
75442;DHT22;64019;48.312;14.226;2023-04-03T16:54:39;4.90;99.90
75442;DHT22;64019;48.312;14.226;2023-04-03T16:57:05;4.70;99.90
75442;DHT22;64019;48.312;14.226;2023-04-03T16:59:30;4.60;99.90
75442;DHT22;64019;48.312;14.226;2023-04-03T17:01:56;4.60;99.90